createdAt,value
2017-10-21T00:00:33.499Z,14.89
2017-10-21T00:01:34.155Z,14.92
2017-10-21T00:02:34.150Z,14.96
2017-10-21T00:03:33.838Z,14.89
2017-10-21T00:04:33.825Z,14.91
2017-10-21T00:05:34.151Z,14.91
2017-10-21T00:06:33.518Z,14.91
2017-10-21T00:07:33.839Z,14.88
2017-10-21T00:08:33.835Z,14.91
2017-10-21T00:09:34.144Z,15
2017-10-21T00:10:33.819Z,14.96
2017-10-21T00:11:34.160Z,14.97
2017-10-21T00:12:33.819Z,14.96
2017-10-21T00:13:33.838Z,15.02
2017-10-21T00:14:34.310Z,14.97
2017-10-21T00:15:34.156Z,14.91
2017-10-21T00:16:33.854Z,14.85
2017-10-21T00:17:33.844Z,14.85
2017-10-21T00:18:34.144Z,14.81
2017-10-21T00:19:33.507Z,14.78
2017-10-21T00:20:33.844Z,14.79
2017-10-21T00:21:33.824Z,14.85
2017-10-21T00:22:33.826Z,14.81
2017-10-21T00:23:34.134Z,14.72
2017-10-21T00:24:34.138Z,14.7
2017-10-21T00:25:34.133Z,14.77
2017-10-21T00:26:33.807Z,14.66
2017-10-21T00:27:34.147Z,14.63
2017-10-21T00:28:33.822Z,14.63
2017-10-21T00:29:33.809Z,14.73
2017-10-21T00:30:33.815Z,14.62
2017-10-21T00:31:33.815Z,14.69
2017-10-21T00:32:34.137Z,14.59
2017-10-21T00:33:33.810Z,14.7
2017-10-21T00:34:33.809Z,14.6
2017-10-21T00:35:33.809Z,14.59
2017-10-21T00:36:33.485Z,14.54
2017-10-21T00:37:34.118Z,14.62
2017-10-21T00:38:33.808Z,14.6
2017-10-21T00:39:33.805Z,14.65
2017-10-21T00:40:34.126Z,14.66
2017-10-21T00:41:33.807Z,14.72
2017-10-21T00:42:34.124Z,14.62
2017-10-21T00:43:33.472Z,14.65
2017-10-21T00:44:34.120Z,14.63
2017-10-21T00:45:34.366Z,14.63
2017-10-21T00:46:33.811Z,14.63
2017-10-21T00:47:33.810Z,14.66
2017-10-21T00:48:34.130Z,14.55
2017-10-21T00:49:34.130Z,14.58
2017-10-21T00:50:33.474Z,14.5
2017-10-21T00:51:33.790Z,14.58
2017-10-21T00:52:33.796Z,14.58
2017-10-21T00:53:34.120Z,14.55
2017-10-21T00:54:34.134Z,14.65
2017-10-21T00:55:34.125Z,14.55
2017-10-21T00:56:34.122Z,14.6
2017-10-21T00:57:33.790Z,14.58
2017-10-21T00:58:34.107Z,14.59
2017-10-21T00:59:33.799Z,14.54
2017-10-21T01:00:33.984Z,14.6
2017-10-21T01:01:33.463Z,14.59
2017-10-21T01:02:34.118Z,14.54
2017-10-21T01:03:33.791Z,14.43
2017-10-21T01:04:34.106Z,14.53
2017-10-21T01:05:34.121Z,14.44
2017-10-21T01:06:33.778Z,14.43
2017-10-21T01:07:34.122Z,14.43
2017-10-21T01:08:34.115Z,14.4
2017-10-21T01:09:34.111Z,14.44
2017-10-21T01:10:34.115Z,14.48
2017-10-21T01:11:33.450Z,14.45
2017-10-21T01:12:34.121Z,14.44
2017-10-21T01:13:34.120Z,14.5
2017-10-21T01:14:34.107Z,14.48
2017-10-21T01:15:38.041Z,14.47
2017-10-21T01:16:34.110Z,14.44
2017-10-21T01:17:33.778Z,14.51
2017-10-21T01:18:33.795Z,14.45
2017-10-21T01:19:34.111Z,14.51
2017-10-21T01:20:34.084Z,14.51
2017-10-21T01:21:33.771Z,14.47
2017-10-21T01:22:34.127Z,14.5
2017-10-21T01:23:33.783Z,14.53
2017-10-21T01:24:33.788Z,14.58
2017-10-21T01:25:33.769Z,14.48
2017-10-21T01:26:34.092Z,14.51
2017-10-21T01:27:34.094Z,14.48
2017-10-21T01:28:34.096Z,14.51
2017-10-21T01:29:34.099Z,14.44
2017-10-21T01:30:34.108Z,14.53
2017-10-21T01:31:34.107Z,14.5
2017-10-21T01:32:33.754Z,14.47
2017-10-21T01:33:34.089Z,14.53
2017-10-21T01:34:34.106Z,14.51
2017-10-21T01:35:34.089Z,14.6
2017-10-21T01:36:34.087Z,14.54
2017-10-21T01:37:33.778Z,14.47
2017-10-21T01:38:33.774Z,14.44
2017-10-21T01:39:34.098Z,14.43
2017-10-21T01:40:33.744Z,14.51
2017-10-21T01:41:33.775Z,14.37
2017-10-21T01:42:34.082Z,14.44
2017-10-21T01:43:34.088Z,14.47
2017-10-21T01:44:33.743Z,14.51
2017-10-21T01:45:33.430Z,14.5
2017-10-21T01:46:34.104Z,14.51
2017-10-21T01:47:33.743Z,14.45
2017-10-21T01:48:33.740Z,14.5
2017-10-21T01:49:34.096Z,14.47
2017-10-21T01:50:34.079Z,14.45
2017-10-21T01:51:34.065Z,14.45
2017-10-21T01:52:34.087Z,14.37
2017-10-21T01:53:34.068Z,14.37
2017-10-21T01:54:34.069Z,14.33
2017-10-21T01:55:33.736Z,14.3
2017-10-21T01:56:33.420Z,14.37
2017-10-21T01:57:33.415Z,14.36
2017-10-21T01:58:34.086Z,14.22
2017-10-21T01:59:33.738Z,14.23
2017-10-21T02:00:34.074Z,14.22
2017-10-21T02:01:34.118Z,14.15
2017-10-21T02:02:34.077Z,14.1
2017-10-21T02:03:33.744Z,14.12
2017-10-21T02:04:33.727Z,14.18
2017-10-21T02:05:34.069Z,14.14
2017-10-21T02:06:33.730Z,14.14
2017-10-21T02:07:33.741Z,14.15
2017-10-21T02:08:33.748Z,14.18
2017-10-21T02:09:33.745Z,14.12
2017-10-21T02:10:33.747Z,14.1
2017-10-21T02:11:33.792Z,14.08
2017-10-21T02:12:33.727Z,13.99
2017-10-21T02:13:33.742Z,13.96
2017-10-21T02:14:34.055Z,13.9
2017-10-21T02:15:34.049Z,13.9
2017-10-21T02:16:34.717Z,13.89
2017-10-21T02:17:33.717Z,13.89
2017-10-21T02:18:33.718Z,13.78
2017-10-21T02:19:33.734Z,13.79
2017-10-21T02:20:33.719Z,13.99
2017-10-21T02:21:33.718Z,13.78
2017-10-21T02:22:33.710Z,13.78
2017-10-21T02:23:33.736Z,13.78
2017-10-21T02:24:33.500Z,13.83
2017-10-21T02:25:33.386Z,13.95
2017-10-21T02:26:33.774Z,13.9
2017-10-21T02:27:34.076Z,13.97
2017-10-21T02:28:33.714Z,13.93
2017-10-21T02:29:33.732Z,13.9
2017-10-21T02:30:34.077Z,13.85
2017-10-21T02:31:34.043Z,13.83
2017-10-21T02:32:33.728Z,13.85
2017-10-21T02:33:34.047Z,13.85
2017-10-21T02:34:34.047Z,13.77
2017-10-21T02:35:34.054Z,13.81
2017-10-21T02:36:34.053Z,13.74
2017-10-21T02:37:33.696Z,13.68
2017-10-21T02:38:33.379Z,13.71
2017-10-21T02:39:33.720Z,13.67
2017-10-21T02:40:34.029Z,13.63
2017-10-21T02:41:34.042Z,13.67
2017-10-21T02:42:33.378Z,13.67
2017-10-21T02:43:33.708Z,13.56
2017-10-21T02:44:34.048Z,13.59
2017-10-21T02:45:34.027Z,13.62
2017-10-21T02:46:34.373Z,13.57
2017-10-21T02:47:34.026Z,13.59
2017-10-21T02:48:33.723Z,13.57
2017-10-21T02:49:33.692Z,13.56
2017-10-21T02:50:34.035Z,13.53
2017-10-21T02:51:33.361Z,13.56
2017-10-21T02:52:33.729Z,13.52
2017-10-21T02:53:34.012Z,13.5
2017-10-21T02:54:33.692Z,13.54
2017-10-21T02:55:33.683Z,13.49
2017-10-21T02:56:33.706Z,13.52
2017-10-21T02:57:34.004Z,13.49
2017-10-21T02:58:34.006Z,13.56
2017-10-21T02:59:34.020Z,13.52
2017-10-21T03:00:33.997Z,13.46
2017-10-21T03:01:34.804Z,13.47
2017-10-21T03:02:34.009Z,13.42
2017-10-21T03:03:34.012Z,13.44
2017-10-21T03:04:33.661Z,13.47
2017-10-21T03:05:34.010Z,13.44
2017-10-21T03:06:33.686Z,13.38
2017-10-21T03:07:33.344Z,13.38
2017-10-21T03:08:33.983Z,13.38
2017-10-21T03:09:34.016Z,13.41
2017-10-21T03:10:33.987Z,13.35
2017-10-21T03:11:33.707Z,13.39
2017-10-21T03:12:34.008Z,13.31
2017-10-21T03:13:33.672Z,13.28
2017-10-21T03:14:33.991Z,13.28
2017-10-21T03:15:33.654Z,13.27
2017-10-21T03:16:33.990Z,13.22
2017-10-21T03:17:33.652Z,13.23
2017-10-21T03:18:33.970Z,13.23
2017-10-21T03:19:33.961Z,13.19
2017-10-21T03:20:33.651Z,13.37
2017-10-21T03:21:33.976Z,13.28
2017-10-21T03:22:33.646Z,13.16
2017-10-21T03:23:33.649Z,13.2
2017-10-21T03:24:33.996Z,13.2
2017-10-21T03:25:33.990Z,13.2
2017-10-21T03:26:33.949Z,13.15
2017-10-21T03:27:33.635Z,13.13
2017-10-21T03:28:33.948Z,13.18
2017-10-21T03:29:33.962Z,13.16
2017-10-21T03:30:33.624Z,13.15
2017-10-21T03:31:33.623Z,13.12
2017-10-21T03:32:33.943Z,13.2
2017-10-21T03:33:33.949Z,13.25
2017-10-21T03:34:33.952Z,13.23
2017-10-21T03:35:33.608Z,13.19
2017-10-21T03:36:33.625Z,13.18
2017-10-21T03:37:33.933Z,13.22
2017-10-21T03:38:33.940Z,13.28
2017-10-21T03:39:33.945Z,13.27
2017-10-21T03:40:33.942Z,13.38
2017-10-21T03:41:33.939Z,13.33
2017-10-21T03:42:33.616Z,13.38
2017-10-21T03:43:33.947Z,13.44
2017-10-21T03:44:33.600Z,13.38
2017-10-21T03:45:33.610Z,13.39
2017-10-21T03:46:33.925Z,13.41
2017-10-21T03:47:37.004Z,13.41
2017-10-21T03:48:33.926Z,13.39
2017-10-21T03:49:33.919Z,13.44
2017-10-21T03:50:33.923Z,13.38
2017-10-21T03:51:33.597Z,13.47
2017-10-21T03:52:33.919Z,13.52
2017-10-21T03:53:33.261Z,13.47
2017-10-21T03:54:33.914Z,13.52
2017-10-21T03:55:33.579Z,13.5
2017-10-21T03:56:33.255Z,13.42
2017-10-21T03:57:33.907Z,13.47
2017-10-21T03:58:33.905Z,13.53
2017-10-21T03:59:33.902Z,13.54
2017-10-21T04:00:33.900Z,13.53
2017-10-21T04:01:33.569Z,13.57
2017-10-21T04:02:33.248Z,13.67
2017-10-21T04:03:33.892Z,13.71
2017-10-21T04:04:33.885Z,13.7
2017-10-21T04:05:33.903Z,13.71
2017-10-21T04:06:33.884Z,13.71
2017-10-21T04:07:33.884Z,13.78
2017-10-21T04:08:33.888Z,13.81
2017-10-21T04:09:33.879Z,13.79
2017-10-21T04:10:33.882Z,13.83
2017-10-21T04:11:33.559Z,13.83
2017-10-21T04:12:33.877Z,13.81
2017-10-21T04:13:33.881Z,13.77
2017-10-21T04:14:33.871Z,13.85
2017-10-21T04:15:33.551Z,13.79
2017-10-21T04:16:33.874Z,13.78
2017-10-21T04:17:33.864Z,13.81
2017-10-21T04:18:33.868Z,13.79
2017-10-21T04:19:33.904Z,13.79
2017-10-21T04:20:33.860Z,13.79
2017-10-21T04:21:33.220Z,13.87
2017-10-21T04:22:33.215Z,13.81
2017-10-21T04:23:33.539Z,13.92
2017-10-21T04:24:33.230Z,13.93
2017-10-21T04:25:33.861Z,13.81
2017-10-21T04:26:33.867Z,13.79
2017-10-21T04:27:33.210Z,13.93
2017-10-21T04:28:33.225Z,13.89
2017-10-21T04:29:33.856Z,13.85
2017-10-21T04:30:33.893Z,13.83
2017-10-21T04:31:33.861Z,13.93
2017-10-21T04:32:33.525Z,13.85
2017-10-21T04:33:33.207Z,13.92
2017-10-21T04:34:33.857Z,13.89
2017-10-21T04:35:33.840Z,13.89
2017-10-21T04:36:33.201Z,13.97
2017-10-21T04:37:33.522Z,14
2017-10-21T04:38:33.517Z,14
2017-10-21T04:39:33.522Z,14
2017-10-21T04:40:33.518Z,14.04
2017-10-21T04:41:33.517Z,14.05
2017-10-21T04:42:33.847Z,13.95
2017-10-21T04:43:33.520Z,14.07
2017-10-21T04:44:33.848Z,14.05
2017-10-21T04:45:33.190Z,14.08
2017-10-21T04:46:33.839Z,13.97
2017-10-21T04:47:33.834Z,13.97
2017-10-21T04:48:34.972Z,14.07
2017-10-21T04:49:33.837Z,14.05
2017-10-21T04:50:33.821Z,14.11
2017-10-21T04:51:33.822Z,14.11
2017-10-21T04:52:33.824Z,14.05
2017-10-21T04:53:33.506Z,14.1
2017-10-21T04:54:33.512Z,14.05
2017-10-21T04:55:33.503Z,14.05
2017-10-21T04:56:33.502Z,13.99
2017-10-21T04:57:33.832Z,14.08
2017-10-21T04:58:33.501Z,14.05
2017-10-21T04:59:33.823Z,13.96
2017-10-21T05:00:33.491Z,14.05
2017-10-21T05:01:33.491Z,13.99
2017-10-21T05:02:33.734Z,13.96
2017-10-21T05:03:33.822Z,13.92
2017-10-21T05:04:33.487Z,13.89
2017-10-21T05:05:33.163Z,13.95
2017-10-21T05:06:33.816Z,13.89
2017-10-21T05:07:33.816Z,13.9
2017-10-21T05:08:33.159Z,13.95
2017-10-21T05:09:33.478Z,13.95
2017-10-21T05:10:33.158Z,13.85
2017-10-21T05:11:33.802Z,13.9
2017-10-21T05:12:33.807Z,13.83
2017-10-21T05:13:33.478Z,13.81
2017-10-21T05:14:33.794Z,13.83
2017-10-21T05:15:33.798Z,13.78
2017-10-21T05:16:33.791Z,13.93
2017-10-21T05:17:33.475Z,13.87
2017-10-21T05:18:36.444Z,13.85
2017-10-21T05:19:33.795Z,13.87
2017-10-21T05:20:33.477Z,13.83
2017-10-21T05:21:33.792Z,13.83
2017-10-21T05:22:33.790Z,13.87
2017-10-21T05:23:33.147Z,13.86
2017-10-21T05:24:33.467Z,13.85
2017-10-21T05:25:33.791Z,13.83
2017-10-21T05:26:33.779Z,13.87
2017-10-21T05:27:33.776Z,13.85
2017-10-21T05:28:33.465Z,13.85
2017-10-21T05:29:33.132Z,13.85
2017-10-21T05:30:33.777Z,13.78
2017-10-21T05:31:33.465Z,13.81
2017-10-21T05:32:33.768Z,13.75
2017-10-21T05:33:33.462Z,13.81
2017-10-21T05:34:33.772Z,13.86
2017-10-21T05:35:33.446Z,13.83
2017-10-21T05:36:33.121Z,13.77
2017-10-21T05:37:33.448Z,13.86
2017-10-21T05:38:33.764Z,13.83
2017-10-21T05:39:33.113Z,13.72
2017-10-21T05:40:33.759Z,13.78
2017-10-21T05:41:33.439Z,13.71
2017-10-21T05:42:33.442Z,13.68
2017-10-21T05:43:33.770Z,13.71
2017-10-21T05:44:33.432Z,13.68
2017-10-21T05:45:33.761Z,13.72
2017-10-21T05:46:33.429Z,13.67
2017-10-21T05:47:33.439Z,13.56
2017-10-21T05:48:33.457Z,13.59
2017-10-21T05:49:35.476Z,13.57
2017-10-21T05:50:33.763Z,13.59
2017-10-21T05:51:33.750Z,13.59
2017-10-21T05:52:33.752Z,13.59
2017-10-21T05:53:33.771Z,13.62
2017-10-21T05:54:33.423Z,13.57
2017-10-21T05:55:33.742Z,13.67
2017-10-21T05:56:33.733Z,13.7
2017-10-21T05:57:33.416Z,13.67
2017-10-21T05:58:33.740Z,13.67
2017-10-21T05:59:33.728Z,13.72
2017-10-21T06:00:33.415Z,13.7
2017-10-21T06:01:33.741Z,13.72
2017-10-21T06:02:33.733Z,13.72
2017-10-21T06:03:33.734Z,13.81
2017-10-21T06:04:33.417Z,13.75
2017-10-21T06:05:33.721Z,13.86
2017-10-21T06:06:33.732Z,13.68
2017-10-21T06:07:33.431Z,13.68
2017-10-21T06:08:33.731Z,13.63
2017-10-21T06:09:33.748Z,13.67
2017-10-21T06:10:33.737Z,13.6
2017-10-21T06:11:33.733Z,13.59
2017-10-21T06:12:33.390Z,13.54
2017-10-21T06:13:33.713Z,13.56
2017-10-21T06:14:33.391Z,13.52
2017-10-21T06:15:33.725Z,13.46
2017-10-21T06:16:33.075Z,13.47
2017-10-21T06:17:33.093Z,13.47
2017-10-21T06:18:33.394Z,13.54
2017-10-21T06:19:34.167Z,13.52
2017-10-21T06:20:33.720Z,13.56
2017-10-21T06:21:33.083Z,13.56
2017-10-21T06:22:33.386Z,13.5
2017-10-21T06:23:33.372Z,13.57
2017-10-21T06:24:33.698Z,13.63
2017-10-21T06:25:33.375Z,13.6
2017-10-21T06:26:33.382Z,13.62
2017-10-21T06:27:33.393Z,13.68
2017-10-21T06:28:33.691Z,13.68
2017-10-21T06:29:33.042Z,13.6
2017-10-21T06:30:33.686Z,13.67
2017-10-21T06:31:33.370Z,13.67
2017-10-21T06:32:33.369Z,13.68
2017-10-21T06:33:33.378Z,13.65
2017-10-21T06:34:34.937Z,13.71
2017-10-21T06:35:33.360Z,13.81
2017-10-21T06:36:33.039Z,13.83
2017-10-21T06:37:33.363Z,13.86
2017-10-21T06:38:33.365Z,13.87
2017-10-21T06:39:33.668Z,13.87
2017-10-21T06:40:33.351Z,13.78
2017-10-21T06:41:33.085Z,13.78
2017-10-21T06:42:33.359Z,13.92
2017-10-21T06:43:33.678Z,13.92
2017-10-21T06:44:33.352Z,13.95
2017-10-21T06:45:33.673Z,14.03
2017-10-21T06:46:33.342Z,14.15
2017-10-21T06:47:33.668Z,14.15
2017-10-21T06:48:33.358Z,14.25
2017-10-21T06:49:39.027Z,14.32
2017-10-21T06:50:33.033Z,14.4
2017-10-21T06:51:33.687Z,14.41
2017-10-21T06:52:33.355Z,14.45
2017-10-21T06:53:33.333Z,14.6
2017-10-21T06:54:33.700Z,14.62
2017-10-21T06:55:33.040Z,14.65
2017-10-21T06:56:33.341Z,14.59
2017-10-21T06:57:33.659Z,14.72
2017-10-21T06:58:33.355Z,14.84
2017-10-21T06:59:33.362Z,14.91
2017-10-21T07:00:33.339Z,15
2017-10-21T07:01:33.660Z,15.21
2017-10-21T07:02:33.666Z,15.39
2017-10-21T07:03:33.657Z,15.55
2017-10-21T07:04:33.653Z,15.73
2017-10-21T07:05:33.699Z,16.04
2017-10-21T07:06:33.655Z,16.26
2017-10-21T07:07:33.674Z,16.41
2017-10-21T07:08:33.659Z,16.6
2017-10-21T07:09:33.337Z,16.71
2017-10-21T07:10:33.344Z,16.75
2017-10-21T07:11:33.345Z,16.84
2017-10-21T07:12:33.663Z,16.91
2017-10-21T07:13:33.353Z,16.86
2017-10-21T07:14:33.656Z,16.87
2017-10-21T07:15:33.647Z,16.83
2017-10-21T07:16:33.335Z,16.86
2017-10-21T07:17:33.651Z,16.79
2017-10-21T07:18:33.661Z,17.09
2017-10-21T07:19:33.018Z,17.14
2017-10-21T07:20:35.507Z,17.31
2017-10-21T07:21:33.655Z,17.39
2017-10-21T07:22:33.345Z,17.34
2017-10-21T07:23:33.677Z,17.16
2017-10-21T07:24:33.339Z,17.14
2017-10-21T07:25:33.683Z,16.94
2017-10-21T07:26:33.357Z,16.79
2017-10-21T07:27:33.676Z,16.53
2017-10-21T07:28:33.358Z,16.46
2017-10-21T07:29:33.350Z,16.32
2017-10-21T07:30:33.675Z,16.16
2017-10-21T07:31:33.354Z,16.04
2017-10-21T07:32:33.683Z,15.9
2017-10-21T07:33:33.674Z,15.77
2017-10-21T07:34:33.350Z,15.77
2017-10-21T07:35:33.357Z,15.8
2017-10-21T07:36:33.366Z,15.83
2017-10-21T07:37:33.359Z,15.88
2017-10-21T07:38:33.673Z,16.04
2017-10-21T07:39:33.419Z,16.17
2017-10-21T07:40:33.354Z,16.33
2017-10-21T07:41:33.071Z,16.54
2017-10-21T07:42:33.359Z,16.69
2017-10-21T07:43:33.027Z,16.76
2017-10-21T07:44:33.705Z,16.96
2017-10-21T07:45:33.354Z,17.05
2017-10-21T07:46:33.674Z,17.14
2017-10-21T07:47:33.666Z,17.29
2017-10-21T07:48:33.361Z,17.34
2017-10-21T07:49:33.368Z,17.39
2017-10-21T07:50:38.636Z,17.42
2017-10-21T07:51:33.692Z,17.34
2017-10-21T07:52:33.069Z,17.38
2017-10-21T07:53:33.143Z,17.45
2017-10-21T07:54:33.837Z,17.64
2017-10-21T07:55:33.426Z,17.72
2017-10-21T07:56:33.775Z,17.79
2017-10-21T07:57:33.709Z,17.74
2017-10-21T07:58:33.792Z,17.68
2017-10-21T07:59:33.810Z,17.57
2017-10-21T08:00:33.872Z,17.34
2017-10-21T08:01:33.920Z,17.52
2017-10-21T08:02:33.821Z,17.8
2017-10-21T08:03:33.488Z,18.13
2017-10-21T08:04:33.449Z,18.37
2017-10-21T08:05:33.690Z,18.49
2017-10-21T08:06:33.422Z,18.63
2017-10-21T08:07:33.695Z,18.81
2017-10-21T08:08:33.070Z,19.11
2017-10-21T08:09:33.398Z,19.34
2017-10-21T08:10:33.373Z,19.63
2017-10-21T08:11:33.705Z,19.77
2017-10-21T08:12:33.707Z,19.88
2017-10-21T08:13:33.394Z,19.69
2017-10-21T08:14:33.511Z,19.47
2017-10-21T08:15:33.405Z,19.11
2017-10-21T08:16:33.080Z,18.7
2017-10-21T08:17:33.402Z,18.4
2017-10-21T08:18:33.720Z,18.11
2017-10-21T08:19:33.403Z,17.9
2017-10-21T08:20:33.421Z,17.8
2017-10-21T08:21:34.560Z,17.64
2017-10-21T08:22:33.424Z,17.59
2017-10-21T08:23:33.415Z,17.49
2017-10-21T08:24:33.738Z,17.39
2017-10-21T08:25:33.104Z,17.46
2017-10-21T08:26:33.100Z,17.38
2017-10-21T08:27:33.421Z,17.39
2017-10-21T08:28:33.104Z,17.45
2017-10-21T08:29:33.752Z,17.36
2017-10-21T08:30:33.750Z,17.3
2017-10-21T08:31:33.752Z,17.29
2017-10-21T08:32:33.126Z,17.19
2017-10-21T08:33:33.762Z,17.19
2017-10-21T08:34:33.771Z,17.15
2017-10-21T08:35:33.435Z,17.12
2017-10-21T08:36:33.758Z,17.09
2017-10-21T08:37:33.781Z,17.09
2017-10-21T08:38:33.126Z,17.06
2017-10-21T08:39:33.769Z,17.04
2017-10-21T08:40:33.450Z,16.99
2017-10-21T08:41:33.451Z,16.96
2017-10-21T08:42:33.768Z,16.97
2017-10-21T08:43:33.450Z,17.04
2017-10-21T08:44:33.448Z,17.04
2017-10-21T08:45:33.452Z,17.09
2017-10-21T08:46:33.770Z,17.14
2017-10-21T08:47:33.470Z,17.12
2017-10-21T08:48:33.143Z,17.09
2017-10-21T08:49:33.510Z,17.11
2017-10-21T08:50:33.777Z,17.16
2017-10-21T08:51:37.028Z,17.42
2017-10-21T08:52:33.471Z,17.38
2017-10-21T08:53:33.460Z,17.48
2017-10-21T08:54:33.481Z,17.51
2017-10-21T08:55:33.792Z,17.68
2017-10-21T08:56:33.470Z,17.68
2017-10-21T08:57:33.482Z,17.59
2017-10-21T08:58:33.482Z,17.65
2017-10-21T08:59:33.464Z,17.65
2017-10-21T09:00:33.511Z,17.65
2017-10-21T09:01:33.484Z,17.64
2017-10-21T09:02:33.467Z,17.68
2017-10-21T09:03:33.796Z,17.71
2017-10-21T09:04:33.158Z,17.83
2017-10-21T09:05:33.799Z,17.97
2017-10-21T09:06:33.821Z,18.07
2017-10-21T09:07:33.800Z,18.19
2017-10-21T09:08:33.532Z,18.37
2017-10-21T09:09:33.160Z,18.53
2017-10-21T09:10:33.805Z,18.75
2017-10-21T09:11:33.481Z,18.98
2017-10-21T09:12:33.804Z,19.09
2017-10-21T09:13:33.812Z,19.36
2017-10-21T09:14:33.173Z,19.31
2017-10-21T09:15:33.810Z,19.41
2017-10-21T09:16:33.487Z,19.49
2017-10-21T09:17:33.826Z,19.45
2017-10-21T09:18:33.172Z,19.56
2017-10-21T09:19:33.818Z,19.55
2017-10-21T09:20:33.531Z,19.62
2017-10-21T09:21:33.510Z,19.59
2017-10-21T09:22:33.511Z,19.62
2017-10-21T09:23:33.520Z,19.58
2017-10-21T09:24:33.823Z,19.52
2017-10-21T09:25:33.513Z,19.54
2017-10-21T09:26:33.196Z,19.54
2017-10-21T09:27:33.517Z,19.52
2017-10-21T09:28:33.838Z,19.47
2017-10-21T09:29:33.516Z,19.55
2017-10-21T09:30:33.848Z,19.49
2017-10-21T09:31:33.212Z,19.41
2017-10-21T09:32:33.542Z,19.45
2017-10-21T09:33:33.523Z,19.48
2017-10-21T09:34:33.529Z,19.56
2017-10-21T09:35:33.856Z,19.62
2017-10-21T09:36:33.856Z,19.69
2017-10-21T09:37:33.536Z,19.71
2017-10-21T09:38:33.858Z,19.69
2017-10-21T09:39:33.544Z,19.73
2017-10-21T09:40:33.544Z,19.85
2017-10-21T09:41:33.544Z,19.89
2017-10-21T09:42:33.875Z,19.95
2017-10-21T09:43:33.552Z,20.03
2017-10-21T09:44:33.874Z,20.1
2017-10-21T09:45:33.877Z,20.26
2017-10-21T09:46:33.878Z,20.37
2017-10-21T09:47:33.881Z,20.36
2017-10-21T09:48:33.560Z,20.34
2017-10-21T09:49:33.884Z,20.4
2017-10-21T09:50:33.252Z,20.43
2017-10-21T09:51:33.894Z,20.47
2017-10-21T09:52:35.320Z,20.52
2017-10-21T09:53:33.900Z,20.55
2017-10-21T09:54:33.267Z,20.56
2017-10-21T09:55:33.900Z,20.66
2017-10-21T09:56:33.910Z,20.66
2017-10-21T09:57:33.651Z,20.77
2017-10-21T09:58:33.979Z,20.9
2017-10-21T09:59:33.919Z,20.87
2017-10-21T10:00:33.593Z,20.88
2017-10-21T10:01:33.597Z,20.92
2017-10-21T10:02:33.602Z,21.02
2017-10-21T10:03:33.933Z,21.05
2017-10-21T10:04:33.292Z,20.96
2017-10-21T10:05:33.613Z,21.07
2017-10-21T10:06:33.934Z,21.14
2017-10-21T10:07:33.620Z,21.11
2017-10-21T10:08:33.618Z,21.06
2017-10-21T10:09:33.297Z,21
2017-10-21T10:10:33.948Z,21.06
2017-10-21T10:11:33.632Z,21.09
2017-10-21T10:12:34.749Z,21.18
2017-10-21T10:13:33.637Z,21.22
2017-10-21T10:14:33.994Z,21.24
2017-10-21T10:15:33.314Z,21.24
2017-10-21T10:16:33.997Z,21.25
2017-10-21T10:17:33.646Z,21.21
2017-10-21T10:18:33.974Z,21.37
2017-10-21T10:19:33.653Z,21.43
2017-10-21T10:20:33.972Z,21.5
2017-10-21T10:21:33.981Z,21.51
2017-10-21T10:22:35.459Z,21.54
2017-10-21T10:23:33.987Z,21.64
2017-10-21T10:24:33.674Z,21.67
2017-10-21T10:25:33.988Z,21.73
2017-10-21T10:26:34.007Z,21.89
2017-10-21T10:27:33.999Z,21.93
2017-10-21T10:28:33.677Z,21.92
2017-10-21T10:29:33.360Z,21.85
2017-10-21T10:30:34.030Z,21.95
2017-10-21T10:31:34.015Z,22.08
2017-10-21T10:32:33.749Z,22
2017-10-21T10:33:34.031Z,22.1
2017-10-21T10:34:34.031Z,22.11
2017-10-21T10:35:33.707Z,22.1
2017-10-21T10:36:34.068Z,22.18
2017-10-21T10:37:33.709Z,22.18
2017-10-21T10:38:34.074Z,22.08
2017-10-21T10:39:33.718Z,22.1
2017-10-21T10:40:34.062Z,22.02
2017-10-21T10:41:34.045Z,21.92
2017-10-21T10:42:34.055Z,21.85
2017-10-21T10:43:34.074Z,21.96
2017-10-21T10:44:33.732Z,21.92
2017-10-21T10:45:34.066Z,22.07
2017-10-21T10:46:33.743Z,22.13
2017-10-21T10:47:34.060Z,22.25
2017-10-21T10:48:33.429Z,22.26
2017-10-21T10:49:33.754Z,22.25
2017-10-21T10:50:33.770Z,22.32
2017-10-21T10:51:33.458Z,22.44
2017-10-21T10:52:33.768Z,22.57
2017-10-21T10:53:34.100Z,22.62
2017-10-21T10:54:34.103Z,22.63
2017-10-21T10:55:34.126Z,22.68
2017-10-21T10:56:34.101Z,22.63
2017-10-21T10:57:33.799Z,22.78
2017-10-21T10:58:35.458Z,22.8
2017-10-21T10:59:34.116Z,22.7
2017-10-21T11:00:33.822Z,22.51
2017-10-21T11:01:33.814Z,22.47
2017-10-21T11:02:33.801Z,22.44
2017-10-21T11:03:33.823Z,22.6
2017-10-21T11:04:33.834Z,22.57
2017-10-21T11:05:33.824Z,22.62
2017-10-21T11:06:33.841Z,22.5
2017-10-21T11:07:34.163Z,22.6
2017-10-21T11:08:34.163Z,22.65
2017-10-21T11:09:33.834Z,22.57
2017-10-21T11:10:33.896Z,22.48
2017-10-21T11:11:34.225Z,22.38
2017-10-21T11:12:34.016Z,22.5
2017-10-21T11:13:33.868Z,22.45
2017-10-21T11:14:34.188Z,22.38
2017-10-21T11:15:34.214Z,22.26
2017-10-21T11:16:34.283Z,22.32
2017-10-21T11:17:33.542Z,22.3
2017-10-21T11:18:34.214Z,22.39
2017-10-21T11:19:33.870Z,22.28
2017-10-21T11:20:33.876Z,22.41
2017-10-21T11:21:33.879Z,22.41
2017-10-21T11:22:33.903Z,22.59
2017-10-21T11:23:36.594Z,22.63
2017-10-21T11:24:34.245Z,22.68
2017-10-21T11:25:34.245Z,22.72
2017-10-21T11:26:34.249Z,22.68
2017-10-21T11:27:34.280Z,22.68
2017-10-21T11:28:33.913Z,22.73
2017-10-21T11:29:33.927Z,22.84
2017-10-21T11:30:34.262Z,22.78
2017-10-21T11:31:34.253Z,22.75
2017-10-21T11:32:33.956Z,22.83
2017-10-21T11:33:33.610Z,22.83
2017-10-21T11:34:33.937Z,22.81
2017-10-21T11:35:34.273Z,22.83
2017-10-21T11:36:34.284Z,22.55
2017-10-21T11:37:34.307Z,22.47
2017-10-21T11:38:33.980Z,22.35
2017-10-21T11:39:34.314Z,22.35
2017-10-21T11:40:34.307Z,22.28
2017-10-21T11:41:34.310Z,22.14
2017-10-21T11:42:33.974Z,22.18
2017-10-21T11:43:34.310Z,22.3
2017-10-21T11:44:34.310Z,22.3
2017-10-21T11:45:33.973Z,22.36
2017-10-21T11:46:33.980Z,22.47
2017-10-21T11:47:33.996Z,22.45
2017-10-21T11:48:34.071Z,22.53
2017-10-21T11:49:34.374Z,22.55
2017-10-21T11:50:34.002Z,22.48
2017-10-21T11:51:33.677Z,22.44
2017-10-21T11:52:34.029Z,22.35
2017-10-21T11:53:34.029Z,22.29
2017-10-21T11:54:34.350Z,22.26
2017-10-21T11:55:34.365Z,22.3
2017-10-21T11:56:34.018Z,22.2
2017-10-21T11:57:34.019Z,22.17
2017-10-21T11:58:34.040Z,22.13
2017-10-21T11:59:33.718Z,22.11
2017-10-21T12:00:34.390Z,22.02
2017-10-21T12:01:34.385Z,22.11
2017-10-21T12:02:34.058Z,21.99
2017-10-21T12:03:34.077Z,21.99
2017-10-21T12:04:34.383Z,21.96
2017-10-21T12:05:34.053Z,22.02
2017-10-21T12:06:34.388Z,21.98
2017-10-21T12:07:34.411Z,22.04
2017-10-21T12:08:34.060Z,21.95
2017-10-21T12:09:34.077Z,21.92
2017-10-21T12:10:34.444Z,21.93
2017-10-21T12:11:34.438Z,21.83
2017-10-21T12:12:34.461Z,21.72
2017-10-21T12:13:34.084Z,21.69
2017-10-21T12:14:34.418Z,21.67
2017-10-21T12:15:33.757Z,21.61
2017-10-21T12:16:33.760Z,21.61
2017-10-21T12:17:34.425Z,21.6
2017-10-21T12:18:34.430Z,21.58
2017-10-21T12:19:34.451Z,21.52
2017-10-21T12:20:33.774Z,21.5
2017-10-21T12:21:34.442Z,21.46
2017-10-21T12:22:34.459Z,21.48
2017-10-21T12:23:34.105Z,21.36
2017-10-21T12:24:34.164Z,21.35
2017-10-21T12:25:34.162Z,21.39
2017-10-21T12:26:34.440Z,21.39
2017-10-21T12:27:34.450Z,21.39
2017-10-21T12:28:33.802Z,21.4
2017-10-21T12:29:34.148Z,21.37
2017-10-21T12:30:34.148Z,21.37
2017-10-21T12:31:34.131Z,21.43
2017-10-21T12:32:34.145Z,21.45
2017-10-21T12:33:34.473Z,21.51
2017-10-21T12:34:34.158Z,21.55
2017-10-21T12:35:34.464Z,21.62
2017-10-21T12:36:34.152Z,21.72
2017-10-21T12:37:34.168Z,21.8
2017-10-21T12:38:34.493Z,21.83
2017-10-21T12:39:34.162Z,21.75
2017-10-21T12:40:34.513Z,21.79
2017-10-21T12:41:34.506Z,21.91
2017-10-21T12:42:34.164Z,21.82
2017-10-21T12:43:34.175Z,21.77
2017-10-21T12:44:34.179Z,21.77
2017-10-21T12:45:34.178Z,21.85
2017-10-21T12:46:34.504Z,21.91
2017-10-21T12:47:34.511Z,21.89
2017-10-21T12:48:34.208Z,21.83
2017-10-21T12:49:34.507Z,21.89
2017-10-21T12:50:34.202Z,21.92
2017-10-21T12:51:34.675Z,21.99
2017-10-21T12:52:34.219Z,21.91
2017-10-21T12:53:34.520Z,21.95
2017-10-21T12:54:35.300Z,21.91
2017-10-21T12:55:33.889Z,22.04